Time;durP1;ratioP1;P1;durP2;ratioP2;P2;SDS_P1;SDS_P2;PMS_P1;PMS_P2;Temp;Humidity;BMP_temperature;BMP_pressure;BME280_temperature;BME280_humidity;BME280_pressure;Samples;Min_cycle;Max_cycle;Signal;HPM_P1;HPM_P2
2023/03/10 00:00:26;;;;;;;0.47;0.47;;;8.30;99.90;;;;;;5054813;28;20181;-69
2023/03/10 00:02:51;;;;;;;1.00;0.70;;;8.30;99.90;;;;;;5054837;28;20821;-69
2023/03/10 00:05:19;;;;;;;0.40;0.40;;;8.20;99.90;;;;;;5055256;28;20173;-69
2023/03/10 00:07:45;;;;;;;0.40;0.40;;;8.10;99.90;;;;;;5055031;28;20199;-69
2023/03/10 00:10:13;;;;;;;0.50;0.50;;;8.00;99.90;;;;;;5054763;28;20178;-69
2023/03/10 00:12:39;;;;;;;0.30;0.30;;;7.90;99.90;;;;;;5054975;28;20186;-69
2023/03/10 00:15:07;;;;;;;0.40;0.40;;;8.00;99.90;;;;;;5054927;28;20307;-69
2023/03/10 00:17:33;;;;;;;0.30;0.30;;;8.10;99.90;;;;;;5054711;28;20177;-69
2023/03/10 00:19:58;;;;;;;0.30;0.30;;;8.10;99.90;;;;;;5054761;28;20183;-69
2023/03/10 00:22:24;;;;;;;0.50;0.50;;;8.10;99.90;;;;;;5054419;28;20682;-69
2023/03/10 00:24:50;;;;;;;0.40;0.40;;;8.20;99.90;;;;;;5054742;28;20185;-69
2023/03/10 00:27:15;;;;;;;4.00;0.83;;;8.20;99.90;;;;;;5054602;28;20202;-70
2023/03/10 00:29:41;;;;;;;0.30;0.30;;;8.30;99.90;;;;;;5054704;28;20166;-69
2023/03/10 00:32:07;;;;;;;1.53;0.77;;;8.30;99.90;;;;;;5054179;28;20428;-69
2023/03/10 00:34:32;;;;;;;0.40;0.40;;;8.40;99.90;;;;;;5054248;28;20186;-69
2023/03/10 00:36:58;;;;;;;3.90;0.60;;;8.40;99.90;;;;;;5054461;28;20454;-69
2023/03/10 00:39:24;;;;;;;0.30;0.30;;;8.40;99.90;;;;;;5054405;28;20177;-69
2023/03/10 00:41:49;;;;;;;0.40;0.40;;;8.50;99.90;;;;;;5054079;28;20166;-69
2023/03/10 00:44:15;;;;;;;0.30;0.30;;;8.60;99.90;;;;;;5053923;28;20174;-69
2023/03/10 00:46:40;;;;;;;0.30;0.30;;;8.60;99.90;;;;;;5054130;28;20194;-69
2023/03/10 00:49:07;;;;;;;0.30;0.30;;;8.70;99.90;;;;;;5054188;28;20173;-69
2023/03/10 00:51:34;;;;;;;0.30;0.30;;;8.80;99.90;;;;;;5053817;28;20170;-69
2023/03/10 00:54:01;;;;;;;0.30;0.30;;;8.80;99.90;;;;;;5053924;28;20520;-69
2023/03/10 00:56:28;;;;;;;0.30;0.30;;;8.80;99.90;;;;;;5053858;28;20197;-69
2023/03/10 00:58:56;;;;;;;0.40;0.40;;;8.80;99.90;;;;;;5053924;28;20182;-70
2023/03/10 01:01:31;;;;;;;0.30;0.30;;;8.70;99.90;;;;;;5053773;28;20168;-69
2023/03/10 01:04:00;;;;;;;0.30;0.30;;;8.70;99.90;;;;;;5053882;28;20194;-69
2023/03/10 01:06:26;;;;;;;0.60;0.60;;;8.80;99.90;;;;;;5053718;28;20603;-69
2023/03/10 01:08:52;;;;;;;0.73;0.50;;;8.80;99.90;;;;;;5053753;28;20182;-69
2023/03/10 01:11:21;;;;;;;0.40;0.40;;;8.80;99.90;;;;;;5053568;28;20245;-69
2023/03/10 01:13:48;;;;;;;0.50;0.50;;;8.80;99.90;;;;;;5053608;28;20678;-69
2023/03/10 01:16:14;;;;;;;0.60;0.50;;;8.70;99.90;;;;;;5053764;28;20181;-69
2023/03/10 01:18:39;;;;;;;0.50;0.50;;;8.80;99.90;;;;;;5053672;28;20182;-69
2023/03/10 01:21:06;;;;;;;0.50;0.50;;;8.70;99.90;;;;;;5053458;28;20523;-69
2023/03/10 01:23:31;;;;;;;0.30;0.30;;;8.60;99.90;;;;;;5053673;28;20193;-69
2023/03/10 01:25:57;;;;;;;0.30;0.30;;;8.50;99.90;;;;;;5035744;28;20257;-69
2023/03/10 01:28:24;;;;;;;0.30;0.30;;;8.50;99.90;;;;;;5053502;28;20228;-69
2023/03/10 01:30:49;;;;;;;0.40;0.40;;;8.40;99.90;;;;;;5053336;28;20400;-69
2023/03/10 01:33:16;;;;;;;0.30;0.30;;;8.50;99.90;;;;;;5053249;28;20205;-69
2023/03/10 01:35:42;;;;;;;0.82;0.82;;;8.40;99.90;;;;;;5053498;28;20439;-69
2023/03/10 01:38:08;;;;;;;0.30;0.30;;;8.40;99.90;;;;;;5053376;28;20181;-69
2023/03/10 01:40:36;;;;;;;0.50;0.50;;;8.40;99.90;;;;;;5053216;28;20212;-69
2023/03/10 01:43:25;;;;;;;1.02;1.00;;;8.50;99.90;;;;;;5053276;28;20566;-69
2023/03/10 01:45:50;;;;;;;0.40;0.40;;;8.40;99.90;;;;;;5053569;28;20198;-69
2023/03/10 01:48:16;;;;;;;0.83;0.83;;;8.30;99.90;;;;;;5053373;28;20686;-69
2023/03/10 01:50:45;;;;;;;0.50;0.50;;;8.10;99.90;;;;;;5053318;28;20227;-69
2023/03/10 01:53:14;;;;;;;0.40;0.40;;;8.10;99.90;;;;;;5053166;28;20257;-69
2023/03/10 01:55:45;;;;;;;0.40;0.40;;;8.20;99.90;;;;;;5055594;28;20311;-69
2023/03/10 01:58:11;;;;;;;0.40;0.40;;;8.20;99.90;;;;;;5057421;28;20586;-69
2023/03/10 02:00:39;;;;;;;5.45;1.42;;;8.20;99.90;;;;;;5057168;28;20188;-69
2023/03/10 02:03:21;;;;;;;0.40;0.40;;;8.10;99.90;;;;;;5057283;28;20197;-69
2023/03/10 02:05:55;;;;;;;0.30;0.30;;;8.20;99.90;;;;;;5057375;28;20181;-68
2023/03/10 02:08:23;;;;;;;0.40;0.40;;;8.10;99.90;;;;;;5057248;28;20632;-69
2023/03/10 02:10:50;;;;;;;0.32;0.32;;;8.20;99.90;;;;;;5057061;28;20181;-69
2023/03/10 02:13:16;;;;;;;0.30;0.30;;;8.20;99.90;;;;;;5057138;28;20194;-69
2023/03/10 02:15:42;;;;;;;0.40;0.40;;;8.20;99.90;;;;;;5057013;28;20230;-69
2023/03/10 02:18:12;;;;;;;0.30;0.30;;;8.10;99.90;;;;;;5057012;28;20178;-69
2023/03/10 02:20:49;;;;;;;0.40;0.40;;;8.10;99.90;;;;;;5056813;28;20170;-69
2023/03/10 02:23:26;;;;;;;0.30;0.30;;;8.20;99.90;;;;;;5056800;28;20189;-69
2023/03/10 02:26:05;;;;;;;0.52;0.52;;;8.20;99.90;;;;;;5056987;28;20552;-69
2023/03/10 02:28:31;;;;;;;0.40;0.40;;;8.10;99.90;;;;;;5056924;28;20194;-69
2023/03/10 02:30:57;;;;;;;0.30;0.30;;;8.10;99.90;;;;;;5056557;28;20232;-69
2023/03/10 02:33:27;;;;;;;0.88;0.88;;;8.10;99.90;;;;;;5056450;28;20694;-69
2023/03/10 02:35:53;;;;;;;0.30;0.30;;;8.20;99.90;;;;;;5056673;28;20182;-69
2023/03/10 02:38:19;;;;;;;0.30;0.30;;;8.20;99.90;;;;;;5056694;28;20219;-69
2023/03/10 02:40:48;;;;;;;0.50;0.50;;;8.10;99.90;;;;;;5056372;28;20184;-69
2023/03/10 02:43:24;;;;;;;2.45;1.33;;;8.10;99.90;;;;;;5056382;28;20189;-69
2023/03/10 02:45:52;;;;;;;0.40;0.40;;;8.10;99.90;;;;;;5056564;28;20714;-69
2023/03/10 02:48:38;;;;;;;1.60;0.95;;;8.10;99.90;;;;;;5056474;28;20204;-68
2023/03/10 02:51:11;;;;;;;0.57;0.57;;;8.10;99.90;;;;;;5055947;28;20543;-69
2023/03/10 02:53:37;;;;;;;0.40;0.40;;;8.10;99.90;;;;;;5056252;28;20276;-69
2023/03/10 02:56:02;;;;;;;0.50;0.50;;;8.20;99.90;;;;;;5056587;28;20600;-69
2023/03/10 02:58:30;;;;;;;0.30;0.30;;;8.20;99.90;;;;;;5056461;28;20201;-69
2023/03/10 03:00:56;;;;;;;0.35;0.35;;;8.30;99.90;;;;;;5056024;28;20641;-69
2023/03/10 03:03:22;;;;;;;3.35;1.23;;;8.30;99.90;;;;;;5056122;28;20296;-69
2023/03/10 03:05:49;;;;;;;0.40;0.40;;;8.20;99.90;;;;;;5055561;28;20173;-69
2023/03/10 03:08:15;;;;;;;0.40;0.40;;;8.20;99.90;;;;;;5055973;28;20210;-69
2023/03/10 03:10:41;;;;;;;0.30;0.30;;;8.10;99.90;;;;;;5055856;28;20180;-69
2023/03/10 03:13:07;;;;;;;2.80;2.60;;;8.10;99.90;;;;;;5055887;28;20194;-69
2023/03/10 03:15:33;;;;;;;0.30;0.30;;;8.30;99.90;;;;;;5055861;28;20200;-69
2023/03/10 03:17:59;;;;;;;0.50;0.50;;;8.30;99.90;;;;;;5056341;28;20251;-69
2023/03/10 03:20:27;;;;;;;1.15;0.73;;;8.30;99.90;;;;;;5055631;28;20765;-69
2023/03/10 03:22:53;;;;;;;0.30;0.30;;;8.10;99.90;;;;;;5055791;28;20233;-69
2023/03/10 03:25:20;;;;;;;0.40;0.40;;;8.10;99.90;;;;;;5055928;28;20248;-69
2023/03/10 03:27:47;;;;;;;0.40;0.40;;;8.10;99.90;;;;;;5055711;28;20444;-69
2023/03/10 03:30:24;;;;;;;0.40;0.40;;;8.00;99.90;;;;;;5037699;28;20280;-69
2023/03/10 03:32:51;;;;;;;0.40;0.40;;;8.20;99.90;;;;;;5055392;28;20243;-69
2023/03/10 03:35:22;;;;;;;0.30;0.30;;;8.10;99.90;;;;;;5054632;28;20178;-69
2023/03/10 03:37:48;;;;;;;0.40;0.40;;;8.10;99.90;;;;;;5054592;28;20176;-69
2023/03/10 03:40:14;;;;;;;0.40;0.40;;;8.20;99.90;;;;;;5036468;28;20256;-69
2023/03/10 03:42:41;;;;;;;0.30;0.30;;;8.20;99.90;;;;;;5054380;28;20189;-69
2023/03/10 03:45:08;;;;;;;0.40;0.40;;;8.20;99.90;;;;;;5054224;28;20178;-69
2023/03/10 03:47:34;;;;;;;0.30;0.30;;;8.20;99.90;;;;;;5054160;28;20281;-69
2023/03/10 03:50:00;;;;;;;0.60;0.60;;;8.20;99.90;;;;;;5054280;28;20170;-69
2023/03/10 03:52:26;;;;;;;0.30;0.30;;;8.20;99.90;;;;;;5053926;28;20189;-69
2023/03/10 03:54:52;;;;;;;0.40;0.40;;;8.20;99.90;;;;;;5054247;28;20180;-69
2023/03/10 03:57:17;;;;;;;0.50;0.50;;;8.30;99.90;;;;;;5054199;28;20594;-69
2023/03/10 03:59:43;;;;;;;0.40;0.40;;;8.30;99.90;;;;;;5054258;28;20181;-69
2023/03/10 04:02:09;;;;;;;0.40;0.40;;;8.30;99.90;;;;;;5053857;28;20280;-69
2023/03/10 04:04:34;;;;;;;6.27;0.90;;;8.30;99.90;;;;;;5054019;28;20212;-70
2023/03/10 04:07:00;;;;;;;0.40;0.40;;;8.30;99.90;;;;;;5054034;28;20237;-69
2023/03/10 04:09:27;;;;;;;0.38;0.38;;;8.20;99.90;;;;;;5054073;28;20166;-69
2023/03/10 04:11:53;;;;;;;0.30;0.30;;;8.30;99.90;;;;;;5053618;28;20170;-69
2023/03/10 04:14:18;;;;;;;0.53;0.53;;;8.30;99.90;;;;;;5053839;28;20166;-69
2023/03/10 04:16:44;;;;;;;0.30;0.30;;;8.40;99.90;;;;;;5053729;28;20181;-69
2023/03/10 04:19:10;;;;;;;0.30;0.30;;;8.40;99.90;;;;;;5053203;28;20170;-69
2023/03/10 04:21:35;;;;;;;0.30;0.30;;;8.30;99.90;;;;;;5053590;28;20184;-69
2023/03/10 04:24:01;;;;;;;0.30;0.30;;;8.20;99.90;;;;;;5053704;28;20716;-69
2023/03/10 04:26:28;;;;;;;0.30;0.30;;;8.30;99.90;;;;;;5053699;28;20175;-69
2023/03/10 04:28:53;;;;;;;0.40;0.40;;;8.20;99.90;;;;;;5053593;28;20660;-69
2023/03/10 04:31:19;;;;;;;0.30;0.30;;;8.30;99.90;;;;;;5053436;28;20162;-69
2023/03/10 04:33:45;;;;;;;0.40;0.40;;;8.20;99.90;;;;;;5014626;28;1123860;-69
2023/03/10 04:36:11;;;;;;;0.30;0.30;;;8.20;99.90;;;;;;5054428;28;20177;-69
2023/03/10 04:38:38;;;;;;;0.40;0.40;;;8.20;99.90;;;;;;5054251;28;20635;-69
2023/03/10 04:41:04;;;;;;;0.50;0.50;;;8.30;99.90;;;;;;5054079;28;20416;-68
2023/03/10 04:43:30;;;;;;;0.88;0.88;;;8.30;99.90;;;;;;5054092;28;20654;-69
2023/03/10 04:45:57;;;;;;;0.50;0.50;;;8.20;99.90;;;;;;5054158;28;20334;-69
2023/03/10 04:48:23;;;;;;;1.70;0.88;;;8.30;99.90;;;;;;5054118;28;20616;-69
2023/03/10 04:50:56;;;;;;;0.40;0.40;;;8.30;99.90;;;;;;5054019;28;20247;-69
2023/03/10 04:53:22;;;;;;;0.30;0.30;;;8.20;99.90;;;;;;5053899;28;20190;-69
2023/03/10 04:55:50;;;;;;;0.43;0.43;;;8.10;99.90;;;;;;5053960;28;20173;-69
2023/03/10 04:58:16;;;;;;;0.30;0.30;;;8.10;99.90;;;;;;5054352;28;20522;-69
2023/03/10 05:00:42;;;;;;;0.30;0.30;;;8.10;99.90;;;;;;5053692;28;20190;-69
2023/03/10 05:03:07;;;;;;;0.30;0.30;;;8.20;99.90;;;;;;5053802;28;20257;-69
2023/03/10 05:05:34;;;;;;;0.30;0.30;;;8.20;99.90;;;;;;5053977;28;20170;-69
2023/03/10 05:07:59;;;;;;;0.30;0.30;;;8.10;99.90;;;;;;5053935;28;20603;-68
2023/03/10 05:10:25;;;;;;;0.40;0.40;;;8.00;99.90;;;;;;5053517;28;20266;-68
2023/03/10 05:12:50;;;;;;;0.30;0.30;;;8.00;99.90;;;;;;5053655;28;20190;-69
2023/03/10 05:15:18;;;;;;;0.97;0.60;;;8.00;99.90;;;;;;5054009;28;20166;-69
2023/03/10 05:17:43;;;;;;;0.30;0.30;;;8.00;99.90;;;;;;5053743;28;20170;-68
2023/03/10 05:20:10;;;;;;;0.30;0.30;;;8.00;99.90;;;;;;5053644;28;20235;-69
2023/03/10 05:22:37;;;;;;;0.50;0.50;;;8.00;99.90;;;;;;5053538;28;20201;-69
2023/03/10 05:25:04;;;;;;;0.40;0.40;;;8.10;99.90;;;;;;5053508;28;20193;-69
2023/03/10 05:27:35;;;;;;;0.30;0.30;;;8.10;99.90;;;;;;5035486;28;20685;-69
2023/03/10 05:30:01;;;;;;;0.40;0.40;;;8.00;99.90;;;;;;5053453;28;20253;-69
2023/03/10 05:32:27;;;;;;;0.40;0.40;;;8.10;99.90;;;;;;5053204;28;20197;-69
2023/03/10 05:34:52;;;;;;;0.80;0.80;;;8.10;99.90;;;;;;5053369;28;20186;-69
2023/03/10 05:37:18;;;;;;;0.30;0.30;;;8.20;99.90;;;;;;5053553;28;20404;-69
2023/03/10 05:39:44;;;;;;;0.30;0.30;;;8.20;99.90;;;;;;5053382;28;20170;-69
2023/03/10 05:42:13;;;;;;;0.30;0.30;;;8.30;99.90;;;;;;5053175;28;20432;-69
2023/03/10 05:44:39;;;;;;;0.30;0.30;;;8.30;99.90;;;;;;5053405;28;20173;-69
2023/03/10 05:47:05;;;;;;;0.40;0.40;;;8.30;99.90;;;;;;5053365;28;20212;-69
2023/03/10 05:49:31;;;;;;;1.35;1.02;;;8.30;99.90;;;;;;5050803;28;20220;-69
2023/03/10 05:51:57;;;;;;;0.30;0.30;;;8.20;99.90;;;;;;5052154;28;20197;-69
2023/03/10 05:54:23;;;;;;;0.85;0.73;;;8.10;99.90;;;;;;5053401;28;20185;-69
2023/03/10 05:56:49;;;;;;;1.05;0.50;;;8.20;99.90;;;;;;5053450;28;20181;-69
2023/03/10 05:59:15;;;;;;;0.30;0.30;;;8.10;99.90;;;;;;5053237;28;20174;-70
2023/03/10 06:01:40;;;;;;;0.80;0.80;;;8.10;99.90;;;;;;5053072;28;20254;-69
2023/03/10 06:04:06;;;;;;;0.30;0.30;;;8.10;99.90;;;;;;5053132;28;20591;-70
2023/03/10 06:06:32;;;;;;;0.40;0.40;;;8.10;99.90;;;;;;5053223;28;20184;-70
2023/03/10 06:08:58;;;;;;;0.30;0.30;;;7.90;99.90;;;;;;5053266;28;20162;-69
2023/03/10 06:11:24;;;;;;;0.77;0.73;;;7.90;99.90;;;;;;5052038;28;20241;-69
2023/03/10 06:13:49;;;;;;;0.40;0.40;;;7.80;99.90;;;;;;5052780;28;20420;-69
2023/03/10 06:16:15;;;;;;;0.40;0.40;;;7.90;99.90;;;;;;5052072;28;20292;-69
2023/03/10 06:18:41;;;;;;;0.60;0.60;;;7.90;99.90;;;;;;5052628;28;20223;-69
2023/03/10 06:21:08;;;;;;;0.30;0.30;;;7.90;99.90;;;;;;5052391;28;20173;-68
2023/03/10 06:23:34;;;;;;;0.30;0.30;;;7.90;99.90;;;;;;5052950;28;20200;-69
2023/03/10 06:26:06;;;;;;;0.50;0.50;;;7.70;99.90;;;;;;5053304;28;20676;-69
2023/03/10 06:28:35;;;;;;;0.30;0.30;;;7.80;99.90;;;;;;5053097;28;20201;-69
2023/03/10 06:31:06;;;;;;;0.30;0.30;;;7.80;99.90;;;;;;5052756;28;20196;-69
2023/03/10 06:33:33;;;;;;;0.52;0.52;;;7.80;99.90;;;;;;5052744;28;20205;-68
2023/03/10 06:35:59;;;;;;;0.40;0.40;;;7.80;99.90;;;;;;5052827;28;20572;-69
2023/03/10 06:38:25;;;;;;;0.30;0.30;;;7.70;99.90;;;;;;5052863;28;20183;-69
2023/03/10 06:40:51;;;;;;;0.43;0.43;;;7.60;99.90;;;;;;5053529;28;20177;-69
2023/03/10 06:43:17;;;;;;;0.40;0.40;;;7.60;99.90;;;;;;5056450;28;20276;-68
2023/03/10 06:45:44;;;;;;;0.40;0.40;;;7.70;99.90;;;;;;5056594;28;20189;-69
2023/03/10 06:48:11;;;;;;;0.95;0.95;;;7.50;99.90;;;;;;5055691;28;20549;-69
2023/03/10 06:50:41;;;;;;;0.30;0.30;;;7.50;99.90;;;;;;5056444;28;20198;-69
2023/03/10 06:53:08;;;;;;;0.43;0.43;;;7.40;99.90;;;;;;5038636;28;20193;-69
2023/03/10 06:55:33;;;;;;;0.38;0.38;;;7.40;99.90;;;;;;5056324;28;20177;-69
2023/03/10 06:57:59;;;;;;;0.90;0.90;;;7.40;99.90;;;;;;5056732;28;20177;-69
2023/03/10 07:00:25;;;;;;;0.30;0.30;;;7.40;99.90;;;;;;5038299;28;20321;-69
2023/03/10 07:02:51;;;;;;;0.40;0.40;;;7.20;99.90;;;;;;5056139;28;20219;-68
2023/03/10 07:05:17;;;;;;;0.30;0.30;;;7.10;99.90;;;;;;5056252;28;20691;-68
2023/03/10 07:07:42;;;;;;;0.30;0.30;;;7.10;99.90;;;;;;5056216;28;20284;-69
2023/03/10 07:10:09;;;;;;;0.30;0.30;;;7.10;99.90;;;;;;5055410;28;20545;-70
2023/03/10 07:12:35;;;;;;;0.45;0.40;;;7.10;99.90;;;;;;5056110;28;20204;-68
2023/03/10 07:15:00;;;;;;;0.50;0.50;;;7.20;99.90;;;;;;5056012;28;20169;-69
2023/03/10 07:17:26;;;;;;;0.90;0.90;;;7.00;99.90;;;;;;5055904;28;20176;-69
2023/03/10 07:19:51;;;;;;;0.40;0.40;;;7.00;99.90;;;;;;5055816;28;20177;-69
2023/03/10 07:22:17;;;;;;;0.30;0.30;;;6.90;99.90;;;;;;5055610;28;20658;-69
2023/03/10 07:24:43;;;;;;;0.30;0.30;;;6.80;99.90;;;;;;5055965;28;20168;-68
2023/03/10 07:27:08;;;;;;;0.30;0.30;;;6.80;99.90;;;;;;5055825;28;20192;-69
2023/03/10 07:29:34;;;;;;;0.40;0.40;;;6.70;99.90;;;;;;5055840;28;20169;-68
2023/03/10 07:32:00;;;;;;;0.50;0.50;;;6.70;99.90;;;;;;5055303;28;20241;-68
2023/03/10 07:34:26;;;;;;;0.40;0.40;;;6.70;99.90;;;;;;5055366;28;20194;-69
2023/03/10 07:36:51;;;;;;;0.30;0.30;;;6.70;99.90;;;;;;5055563;28;20659;-69
2023/03/10 07:39:17;;;;;;;0.40;0.40;;;6.80;99.90;;;;;;5055585;28;20255;-69
2023/03/10 07:41:43;;;;;;;0.40;0.40;;;6.70;99.90;;;;;;5055112;28;20409;-68
2023/03/10 07:44:09;;;;;;;0.30;0.30;;;6.70;99.90;;;;;;5055369;28;20408;-68
2023/03/10 07:46:34;;;;;;;0.40;0.40;;;6.70;99.90;;;;;;5055224;28;20176;-69
2023/03/10 07:49:03;;;;;;;0.40;0.40;;;6.50;99.90;;;;;;5055326;28;20168;-68
2023/03/10 07:51:29;;;;;;;0.50;0.50;;;6.50;99.90;;;;;;5054859;28;20195;-69
2023/03/10 07:53:55;;;;;;;0.40;0.40;;;6.60;99.90;;;;;;5054179;28;20278;-68
2023/03/10 07:56:20;;;;;;;0.40;0.40;;;6.50;99.90;;;;;;5055318;28;20590;-68
2023/03/10 07:58:47;;;;;;;0.40;0.40;;;6.40;99.90;;;;;;5055264;28;20179;-68
2023/03/10 08:01:17;;;;;;;1.13;1.08;;;6.40;99.90;;;;;;5055013;28;20254;-68
2023/03/10 08:03:43;;;;;;;0.50;0.50;;;6.30;99.90;;;;;;5054918;28;20224;-69
2023/03/10 08:06:15;;;;;;;0.60;0.60;;;6.40;99.90;;;;;;5055026;28;20674;-68
2023/03/10 08:08:41;;;;;;;0.30;0.30;;;6.40;99.90;;;;;;5055004;28;20473;-69
2023/03/10 08:11:09;;;;;;;0.30;0.30;;;6.40;99.90;;;;;;5054709;28;20649;-69
2023/03/10 08:13:35;;;;;;;0.32;0.32;;;6.50;99.90;;;;;;5054721;28;20190;-69
2023/03/10 08:16:02;;;;;;;0.30;0.30;;;6.60;99.90;;;;;;5054752;28;20176;-69
2023/03/10 08:18:30;;;;;;;0.30;0.30;;;6.60;99.90;;;;;;5054695;28;20180;-68
2023/03/10 08:20:56;;;;;;;0.40;0.40;;;6.70;99.90;;;;;;5054671;28;20211;-69
2023/03/10 08:23:22;;;;;;;0.32;0.32;;;6.60;99.90;;;;;;5054581;28;20219;-69
2023/03/10 08:25:48;;;;;;;0.50;0.50;;;6.60;99.90;;;;;;5054515;28;20532;-69
2023/03/10 08:28:14;;;;;;;1.65;1.55;;;6.50;99.90;;;;;;5054543;28;20193;-69
2023/03/10 08:30:40;;;;;;;0.40;0.40;;;6.50;99.90;;;;;;5054271;28;20172;-69
2023/03/10 08:33:09;;;;;;;1.43;1.13;;;6.40;99.90;;;;;;5054253;28;20277;-68
2023/03/10 08:35:35;;;;;;;1.23;1.13;;;6.30;99.90;;;;;;5054594;28;20398;-69
2023/03/10 08:38:00;;;;;;;0.40;0.40;;;6.20;99.90;;;;;;5054296;28;20179;-69
2023/03/10 08:40:26;;;;;;;7.50;1.53;;;6.20;99.90;;;;;;5054266;28;20167;-69
2023/03/10 08:42:52;;;;;;;0.83;0.83;;;6.20;99.90;;;;;;5054103;28;20197;-69
2023/03/10 08:45:18;;;;;;;0.40;0.40;;;6.20;99.90;;;;;;5036292;28;20169;-68
2023/03/10 08:47:43;;;;;;;1.00;1.00;;;6.20;99.90;;;;;;5054100;28;20452;-68
2023/03/10 08:50:11;;;;;;;0.40;0.40;;;6.10;99.90;;;;;;5054051;28;20481;-69
2023/03/10 08:52:38;;;;;;;0.70;0.70;;;6.30;99.90;;;;;;5054095;28;20299;-68
2023/03/10 08:55:04;;;;;;;0.98;0.98;;;6.40;99.90;;;;;;5053900;28;20606;-69
2023/03/10 08:57:30;;;;;;;1.23;1.17;;;6.40;99.90;;;;;;5054051;28;20166;-68
2023/03/10 08:59:56;;;;;;;0.90;0.90;;;6.40;99.90;;;;;;5053789;28;20222;-68
2023/03/10 09:02:22;;;;;;;0.40;0.40;;;6.40;99.90;;;;;;5053579;28;20558;-69
2023/03/10 09:04:48;;;;;;;0.40;0.40;;;6.40;99.90;;;;;;5053498;28;20703;-68
2023/03/10 09:07:14;;;;;;;1.00;0.93;;;6.30;99.90;;;;;;5053877;28;20194;-69
2023/03/10 09:09:39;;;;;;;2.07;1.27;;;6.30;99.90;;;;;;5053973;28;20516;-68
2023/03/10 09:12:07;;;;;;;0.63;0.63;;;6.40;99.90;;;;;;5053422;28;20186;-68
2023/03/10 09:14:33;;;;;;;1.63;1.52;;;6.40;99.90;;;;;;5053637;28;20248;-69
2023/03/10 09:16:59;;;;;;;1.30;1.20;;;6.40;99.90;;;;;;5053835;28;20256;-68
2023/03/10 09:19:24;;;;;;;1.23;0.90;;;6.40;99.90;;;;;;5053706;28;20504;-69
2023/03/10 09:21:50;;;;;;;0.60;0.60;;;6.40;99.90;;;;;;5053269;28;20179;-69
2023/03/10 09:24:16;;;;;;;0.87;0.83;;;6.50;99.90;;;;;;5053496;28;20170;-69
2023/03/10 09:26:42;;;;;;;0.82;0.82;;;6.50;99.90;;;;;;5053395;28;20223;-68
2023/03/10 09:29:08;;;;;;;0.40;0.40;;;6.50;99.90;;;;;;5053701;28;20694;-68
2023/03/10 09:31:35;;;;;;;2.63;0.73;;;6.50;99.90;;;;;;5053360;28;20171;-69
2023/03/10 09:34:01;;;;;;;1.95;0.57;;;6.50;99.90;;;;;;5053444;28;20203;-68
2023/03/10 09:36:28;;;;;;;2.83;2.58;;;6.60;99.90;;;;;;5053523;28;20558;-69
2023/03/10 09:38:56;;;;;;;1.02;1.02;;;6.50;99.90;;;;;;5035556;28;20183;-69
2023/03/10 09:41:36;;;;;;;0.30;0.30;;;6.60;99.90;;;;;;5053327;28;20188;-68
2023/03/10 09:44:21;;;;;;;8.98;0.63;;;6.60;99.90;;;;;;5053403;28;20226;-69
2023/03/10 09:47:08;;;;;;;0.50;0.50;;;6.50;99.90;;;;;;5053591;28;20536;-69
2023/03/10 09:49:38;;;;;;;0.30;0.30;;;6.60;99.90;;;;;;5053466;28;20171;-69
2023/03/10 09:52:19;;;;;;;1.27;1.17;;;6.50;99.90;;;;;;5053342;28;20589;-69
2023/03/10 09:54:59;;;;;;;3.13;1.38;;;6.70;99.90;;;;;;5053379;28;20179;-69
2023/03/10 09:57:26;;;;;;;1.30;0.50;;;6.80;99.90;;;;;;5053535;28;20344;-69
2023/03/10 09:59:57;;;;;;;0.85;0.85;;;6.90;99.90;;;;;;5053367;28;20275;-69
2023/03/10 10:02:31;;;;;;;0.50;0.50;;;7.00;99.90;;;;;;5053007;28;20193;-69
2023/03/10 10:05:00;;;;;;;11.85;2.33;;;6.90;99.90;;;;;;5053390;28;20181;-69
2023/03/10 10:07:31;;;;;;;0.38;0.38;;;6.90;99.90;;;;;;5053014;28;20250;-69
2023/03/10 10:10:06;;;;;;;0.30;0.30;;;6.90;99.90;;;;;;5053247;28;20161;-69
2023/03/10 10:12:32;;;;;;;1.13;1.13;;;6.80;99.90;;;;;;5053040;28;20195;-69
2023/03/10 10:15:12;;;;;;;0.35;0.35;;;6.90;99.90;;;;;;5053273;28;20175;-69
2023/03/10 10:17:56;;;;;;;0.38;0.38;;;6.70;99.90;;;;;;5057189;28;20529;-69
2023/03/10 10:20:31;;;;;;;0.30;0.30;;;6.80;99.90;;;;;;5057015;28;20199;-69
2023/03/10 10:22:56;;;;;;;0.50;0.50;;;6.70;99.90;;;;;;5056922;28;20193;-68
2023/03/10 10:25:24;;;;;;;0.30;0.30;;;6.80;99.90;;;;;;5056859;28;20182;-69
2023/03/10 10:27:52;;;;;;;0.40;0.40;;;7.00;99.90;;;;;;5056713;28;20223;-69
2023/03/10 10:30:35;;;;;;;0.40;0.40;;;7.10;99.90;;;;;;5056657;28;20173;-69
2023/03/10 10:33:10;;;;;;;0.50;0.50;;;7.10;99.90;;;;;;5056582;28;20280;-69
2023/03/10 10:35:41;;;;;;;1.25;1.15;;;7.10;99.90;;;;;;5056896;28;20268;-69
2023/03/10 10:38:22;;;;;;;0.60;0.60;;;7.10;99.90;;;;;;5056714;28;20584;-69
2023/03/10 10:40:50;;;;;;;0.30;0.30;;;7.00;99.90;;;;;;5056515;28;20254;-69
2023/03/10 10:43:20;;;;;;;0.40;0.40;;;7.10;99.90;;;;;;5056367;28;20669;-69
2023/03/10 10:45:55;;;;;;;0.30;0.30;;;7.20;99.90;;;;;;5056641;28;20180;-69
2023/03/10 10:48:45;;;;;;;0.30;0.30;;;7.40;99.90;;;;;;5056101;28;20232;-69
2023/03/10 10:51:27;;;;;;;0.30;0.30;;;7.40;99.90;;;;;;5056357;28;20543;-69
2023/03/10 10:53:54;;;;;;;1.77;0.75;;;7.40;99.90;;;;;;5056252;28;20268;-69
2023/03/10 10:56:22;;;;;;;0.40;0.40;;;7.30;99.90;;;;;;5056465;28;20175;-69
2023/03/10 10:59:06;;;;;;;0.55;0.55;;;7.10;99.90;;;;;;5038242;28;20191;-69
2023/03/10 11:01:56;;;;;;;0.40;0.40;;;6.70;99.90;;;;;;5056100;28;20182;-69
2023/03/10 11:04:23;;;;;;;0.30;0.30;;;6.70;99.90;;;;;;5056120;28;20157;-70
2023/03/10 11:06:49;;;;;;;0.40;0.40;;;6.90;99.90;;;;;;5055512;28;20496;-69
2023/03/10 11:09:21;;;;;;;0.40;0.40;;;7.00;99.90;;;;;;5056253;28;20720;-69
2023/03/10 11:12:00;;;;;;;1.70;1.60;;;7.10;99.90;;;;;;5056168;28;20575;-71
2023/03/10 11:14:51;;;;;;;0.40;0.40;;;7.20;99.90;;;;;;5056577;28;20504;-71
2023/03/10 11:17:19;;;;;;;0.40;0.40;;;7.30;99.90;;;;;;5036769;28;20205;-71
2023/03/10 11:20:05;;;;;;;0.30;0.30;;;7.20;99.90;;;;;;5056020;28;20524;-71
2023/03/10 11:23:00;;;;;;;0.40;0.40;;;7.30;99.90;;;;;;5055662;28;20591;-71
2023/03/10 11:25:36;;;;;;;0.30;0.30;;;7.20;99.90;;;;;;5055794;28;20176;-71
2023/03/10 11:28:02;;;;;;;0.30;0.30;;;7.00;99.90;;;;;;5055651;28;20198;-71
2023/03/10 11:30:37;;;;;;;2.40;2.30;;;7.00;99.90;;;;;;5055954;28;20173;-71
2023/03/10 11:33:44;;;;;;;0.40;0.40;;;6.80;99.90;;;;;;5055634;28;20231;-71
2023/03/10 11:36:16;;;;;;;0.40;0.40;;;6.70;99.90;;;;;;5049867;28;20237;-71
2023/03/10 11:38:45;;;;;;;0.30;0.30;;;6.50;99.90;;;;;;5055516;28;20178;-71
2023/03/10 11:41:20;;;;;;;0.38;0.38;;;6.50;99.90;;;;;;5055122;28;20629;-71
2023/03/10 11:44:19;;;;;;;0.40;0.40;;;6.50;99.90;;;;;;5055278;28;20278;-70
2023/03/10 11:47:07;;;;;;;0.88;0.88;;;6.50;99.90;;;;;;5055309;28;20553;-71
2023/03/10 11:49:39;;;;;;;0.40;0.40;;;6.60;99.90;;;;;;5055632;28;20503;-71
2023/03/10 11:52:13;;;;;;;0.40;0.40;;;6.70;99.90;;;;;;5054189;28;20184;-71
2023/03/10 11:54:46;;;;;;;0.40;0.40;;;6.80;99.90;;;;;;5054974;28;20146;-71
2023/03/10 11:57:16;;;;;;;0.30;0.30;;;7.00;99.90;;;;;;5053238;28;20242;-71
2023/03/10 11:59:52;;;;;;;0.40;0.40;;;7.10;99.90;;;;;;5055280;28;20267;-72
2023/03/10 12:02:41;;;;;;;0.43;0.43;;;7.20;99.90;;;;;;5054176;28;20226;-72
2023/03/10 12:05:21;;;;;;;0.40;0.40;;;7.20;99.90;;;;;;5054997;28;20673;-71
2023/03/10 12:07:51;;;;;;;0.52;0.52;;;6.70;99.90;;;;;;5054677;28;20195;-72
2023/03/10 12:10:20;;;;;;;0.40;0.40;;;6.20;99.90;;;;;;5054902;28;20177;-71
2023/03/10 12:12:52;;;;;;;0.40;0.40;;;6.00;99.90;;;;;;5055208;28;20555;-71
2023/03/10 12:15:22;;;;;;;0.43;0.43;;;6.10;99.90;;;;;;5055012;28;20637;-71
2023/03/10 12:17:49;;;;;;;0.40;0.40;;;6.10;99.90;;;;;;5054545;28;20699;-71
2023/03/10 12:20:15;;;;;;;0.30;0.30;;;6.00;99.90;;;;;;5054395;28;20175;-72
2023/03/10 12:22:51;;;;;;;0.40;0.40;;;6.20;99.90;;;;;;5054605;28;20693;-71
2023/03/10 12:25:28;;;;;;;0.30;0.30;;;6.40;99.90;;;;;;5055160;28;20395;-71
2023/03/10 12:28:16;;;;;;;0.40;0.40;;;6.40;99.90;;;;;;5054143;28;20201;-71
2023/03/10 12:30:58;;;;;;;0.45;0.45;;;6.40;99.90;;;;;;5052478;28;20242;-71
2023/03/10 12:33:30;;;;;;;6.65;0.95;;;6.30;99.90;;;;;;5051625;28;20232;-71
2023/03/10 12:36:13;;;;;;;0.40;0.40;;;6.30;99.90;;;;;;5053165;28;20168;-71
2023/03/10 12:38:48;;;;;;;0.40;0.40;;;6.40;99.90;;;;;;5052492;28;20195;-71
2023/03/10 12:41:40;;;;;;;1.70;1.70;;;6.40;99.90;;;;;;5035134;28;20275;-71
2023/03/10 12:44:42;;;;;;;0.40;0.40;;;6.40;99.90;;;;;;5048208;28;20185;-71
2023/03/10 12:47:08;;;;;;;0.40;0.40;;;6.40;99.90;;;;;;5036233;28;20199;-71
2023/03/10 12:50:00;;;;;;;0.40;0.40;;;6.40;99.90;;;;;;5054352;28;20172;-71
2023/03/10 12:52:51;;;;;;;0.70;0.70;;;6.50;99.90;;;;;;5053890;28;20611;-71
2023/03/10 12:55:20;;;;;;;0.30;0.30;;;6.40;99.90;;;;;;5035323;28;20187;-71
2023/03/10 12:58:09;;;;;;;0.30;0.30;;;6.30;99.90;;;;;;5053896;28;20249;-71
2023/03/10 13:01:00;;;;;;;1.85;0.60;;;6.50;99.90;;;;;;5053724;28;20176;-71
2023/03/10 13:03:34;;;;;;;1.88;0.80;;;6.60;99.90;;;;;;5053937;28;20576;-71
2023/03/10 13:06:12;;;;;;;0.40;0.40;;;6.70;99.90;;;;;;5053663;28;20588;-72
2023/03/10 13:08:40;;;;;;;0.52;0.52;;;6.70;99.90;;;;;;5053542;28;20202;-71